Carterville, Illinois
Current Conditions -  °F | °C
As of 5:58 PM on Sunday 23 Nov 2014 (Local Time) from KMWA Reporting Station
Heavy Rain Heavy Rain  
Wind Chill: 54°   Ceiling: 2700
Heat Index: 54°   Visibility: 6mi
Dew Point: 54°   Wind: 0mph
Humidity: 100%   Direction: NA
Pressure: 29.31"   Gusts: NA
Location:  37.76°N, 89.08°W
Report Text: KMWA 232358Z 00000KT 2 +RA SCT016 BKN027 OVC033 12/12 A2931
Loading
Personal Weather Stations






























Interactive Weather Map New forecast layout! Learn more

10-Day Weather Forecast

Advertisements
Track Severe Weather on mobile